createdAt,value
2022-07-26T00:04:12.117Z,0.30
2022-07-26T00:09:15.934Z,0.30
2022-07-26T00:14:21.079Z,0.27
2022-07-26T00:19:24.712Z,0.40
2022-07-26T00:24:32.361Z,0.30
2022-07-26T00:29:40.333Z,0.30
2022-07-26T00:34:43.891Z,0.40
2022-07-26T00:39:47.527Z,0.30
2022-07-26T00:44:52.634Z,0.50
2022-07-26T00:49:56.222Z,0.50
2022-07-26T00:55:00.190Z,0.40
2022-07-26T01:00:07.400Z,0.30
2022-07-26T01:05:11.573Z,0.40
2022-07-26T01:10:15.200Z,0.30
2022-07-26T01:15:20.608Z,0.30
2022-07-26T01:20:24.195Z,0.30
2022-07-26T01:25:33.798Z,0.40
2022-07-26T01:30:47.368Z,0.30
2022-07-26T01:35:50.918Z,0.30
2022-07-26T01:40:55.960Z,0.30
2022-07-26T01:45:59.600Z,0.30
2022-07-26T01:51:03.504Z,0.40
2022-07-26T01:56:08.995Z,0.27
2022-07-26T02:01:12.715Z,0.27
2022-07-26T02:06:16.347Z,0.40
2022-07-26T02:11:21.266Z,0.30
2022-07-26T02:16:24.943Z,0.40
2022-07-26T02:21:28.552Z,0.20
2022-07-26T02:26:33.482Z,0.37
2022-07-26T02:31:37.111Z,0.30
2022-07-26T02:36:40.747Z,0.30
2022-07-26T02:41:45.801Z,0.40
2022-07-26T02:46:49.424Z,0.20
2022-07-26T02:51:53.097Z,0.40
2022-07-26T02:56:58.077Z,0.50
2022-07-26T03:02:01.878Z,0.50
2022-07-26T03:07:05.565Z,0.30
2022-07-26T03:12:10.820Z,0.30
2022-07-26T03:17:14.420Z,0.40
2022-07-26T03:22:18.253Z,0.40
2022-07-26T03:27:23.444Z,0.30
2022-07-26T03:32:27.480Z,0.30
2022-07-26T03:37:45.164Z,0.40
2022-07-26T03:42:51.542Z,0.30
2022-07-26T03:47:56.083Z,0.40
2022-07-26T03:52:59.660Z,0.37
2022-07-26T03:58:04.761Z,0.30
2022-07-26T04:03:08.325Z,0.40
2022-07-26T04:08:11.943Z,0.37
2022-07-26T04:13:16.931Z,0.43
2022-07-26T04:18:20.710Z,0.43
2022-07-26T04:23:27.932Z,0.73
2022-07-26T04:28:33.280Z,0.57
2022-07-26T04:33:37.282Z,0.40
2022-07-26T04:38:41.279Z,0.50
2022-07-26T04:43:46.218Z,0.40
2022-07-26T04:48:49.912Z,0.37
2022-07-26T04:53:53.556Z,0.50
2022-07-26T04:58:58.926Z,0.40
2022-07-26T05:04:02.515Z,0.60
2022-07-26T05:09:06.160Z,0.40
2022-07-26T05:14:11.352Z,0.53
2022-07-26T05:19:15.313Z,0.43
2022-07-26T05:24:18.952Z,0.60
2022-07-26T05:29:23.897Z,0.40
2022-07-26T05:34:27.566Z,0.40
2022-07-26T05:39:31.210Z,0.60
2022-07-26T05:44:36.210Z,0.70
2022-07-26T05:49:46.507Z,0.43
2022-07-26T05:54:50.203Z,0.50
2022-07-26T05:59:55.166Z,0.57
2022-07-26T06:04:58.778Z,0.57
2022-07-26T06:10:02.543Z,0.60
2022-07-26T06:15:15.134Z,0.70
2022-07-26T06:20:19.443Z,0.70
2022-07-26T06:25:23.027Z,0.57
2022-07-26T06:30:28.193Z,0.50
2022-07-26T06:35:32.162Z,0.70
2022-07-26T06:40:36.421Z,0.70
2022-07-26T06:45:41.396Z,0.70
2022-07-26T06:50:45.098Z,0.60
2022-07-26T06:55:48.697Z,0.90
2022-07-26T07:00:53.820Z,0.90
2022-07-26T07:05:57.872Z,0.90
2022-07-26T07:11:01.915Z,0.90
2022-07-26T07:16:07.899Z,0.60
2022-07-26T07:21:11.525Z,0.60
2022-07-26T07:26:15.553Z,0.90
2022-07-26T07:31:21.360Z,1.00
2022-07-26T07:36:26.502Z,0.80
2022-07-26T07:41:30.482Z,0.83
2022-07-26T07:46:35.894Z,0.80
2022-07-26T07:51:39.651Z,1.10
2022-07-26T07:56:43.368Z,1.00
2022-07-26T08:01:48.842Z,0.90
2022-07-26T08:06:52.475Z,1.37
2022-07-26T08:11:57.082Z,0.90
2022-07-26T08:17:02.182Z,1.00
2022-07-26T08:22:08.203Z,1.40
2022-07-26T08:27:11.889Z,2.10
2022-07-26T08:32:17.172Z,1.00
2022-07-26T08:37:20.973Z,1.03
2022-07-26T08:42:24.649Z,0.80
2022-07-26T08:47:36.223Z,0.90
2022-07-26T08:52:41.815Z,1.00
2022-07-26T08:57:45.838Z,1.03
2022-07-26T09:02:51.109Z,1.10
2022-07-26T09:07:54.786Z,1.30
2022-07-26T09:12:59.316Z,1.27
2022-07-26T09:18:04.523Z,1.53
2022-07-26T09:23:10.274Z,1.17
2022-07-26T09:28:24.063Z,1.30
2022-07-26T09:33:45.500Z,1.70
2022-07-26T09:38:51.430Z,1.30
2022-07-26T09:43:56.156Z,1.70
2022-07-26T09:49:18.352Z,1.60
2022-07-26T09:54:32.941Z,1.43
2022-07-26T09:59:36.535Z,1.33
2022-07-26T10:04:42.229Z,1.20
2022-07-26T10:09:50.746Z,1.30
2022-07-26T10:14:55.233Z,1.07
2022-07-26T10:20:01.790Z,1.03
2022-07-26T10:25:38.818Z,1.20
2022-07-26T10:30:42.545Z,1.37
2022-07-26T10:35:47.619Z,1.20
2022-07-26T10:40:57.885Z,1.00
2022-07-26T10:46:34.577Z,1.10
2022-07-26T10:51:41.743Z,1.00
2022-07-26T10:56:45.340Z,1.13
2022-07-26T11:01:48.976Z,1.37
2022-07-26T11:06:54.083Z,1.10
2022-07-26T11:12:15.264Z,1.33
2022-07-26T11:17:26.038Z,0.90
2022-07-26T11:22:35.299Z,1.00
2022-07-26T11:27:39.003Z,0.70
2022-07-26T11:32:53.605Z,0.97
2022-07-26T11:38:11.291Z,0.80
2022-07-26T11:43:15.979Z,0.60
2022-07-26T11:48:19.634Z,0.70
2022-07-26T11:53:24.659Z,0.60
2022-07-26T11:58:28.363Z,0.50
2022-07-26T12:03:34.947Z,0.70
2022-07-26T12:08:55.754Z,0.60
2022-07-26T12:14:01.863Z,0.40
2022-07-26T12:19:06.642Z,0.50
2022-07-26T12:24:13.689Z,0.70
2022-07-26T12:29:33.043Z,0.43
2022-07-26T12:34:37.342Z,0.70
2022-07-26T12:39:43.901Z,0.40
2022-07-26T12:44:47.511Z,0.50
2022-07-26T12:49:51.788Z,0.60
2022-07-26T12:54:56.807Z,0.80
2022-07-26T13:00:00.951Z,0.60
2022-07-26T13:05:05.327Z,0.50
2022-07-26T13:15:37.975Z,0.50
2022-07-26T13:20:41.826Z,0.47
2022-07-26T13:25:46.805Z,0.50
2022-07-26T13:30:50.460Z,0.50
2022-07-26T13:35:54.093Z,0.40
2022-07-26T13:40:59.306Z,0.60
2022-07-26T13:46:03.007Z,0.40
2022-07-26T13:51:07.134Z,0.40
2022-07-26T13:56:12.155Z,0.50
2022-07-26T14:01:15.778Z,0.40
2022-07-26T14:06:19.381Z,0.53
2022-07-26T14:11:24.416Z,0.40
2022-07-26T14:16:28.569Z,0.40
2022-07-26T14:21:38.716Z,0.30
2022-07-26T14:26:58.291Z,0.40
2022-07-26T14:32:04.210Z,0.40
2022-07-26T14:37:15.244Z,0.43
2022-07-26T14:42:32.832Z,0.30
2022-07-26T14:47:36.528Z,0.50
2022-07-26T14:52:41.254Z,0.40
2022-07-26T14:57:46.226Z,0.30
2022-07-26T15:02:50.958Z,0.30
2022-07-26T15:07:55.259Z,0.37
2022-07-26T15:13:01.726Z,0.40
2022-07-26T15:18:05.613Z,0.20
2022-07-26T15:23:11.684Z,0.27
2022-07-26T15:28:17.289Z,0.37
2022-07-26T15:33:21.331Z,0.30
2022-07-26T15:38:25.452Z,0.30
2022-07-26T15:43:44.387Z,0.40
2022-07-26T15:48:53.317Z,0.20
2022-07-26T15:53:57.030Z,0.30
2022-07-26T15:59:02.397Z,0.30
2022-07-26T16:04:07.070Z,0.40
2022-07-26T16:09:17.761Z,0.40
2022-07-26T16:14:23.666Z,0.40
2022-07-26T16:19:27.497Z,0.40
2022-07-26T16:24:31.435Z,0.40
2022-07-26T16:29:36.796Z,0.30
2022-07-26T16:34:40.534Z,0.40
2022-07-26T16:39:44.461Z,0.47
2022-07-26T16:44:50.043Z,0.20
2022-07-26T16:49:53.885Z,0.30
2022-07-26T16:54:57.753Z,0.40
2022-07-26T17:00:03.092Z,0.40
2022-07-26T17:05:08.399Z,0.30
2022-07-26T17:10:12.501Z,0.30
2022-07-26T17:15:17.794Z,0.40
2022-07-26T17:20:21.673Z,0.23
2022-07-26T17:25:25.506Z,0.30
2022-07-26T17:30:30.723Z,0.30
2022-07-26T17:35:34.640Z,0.20
2022-07-26T17:40:38.582Z,0.20
2022-07-26T17:45:44.803Z,0.30
2022-07-26T17:50:49.199Z,0.20
2022-07-26T17:55:52.951Z,0.30
2022-07-26T18:00:58.631Z,0.30
2022-07-26T18:06:02.547Z,0.47
2022-07-26T18:11:08.000Z,0.30
2022-07-26T18:16:14.161Z,0.20
2022-07-26T18:21:18.286Z,0.20
2022-07-26T18:26:23.729Z,0.20
2022-07-26T18:31:29.130Z,0.30
2022-07-26T18:36:33.068Z,0.40
2022-07-26T18:41:36.930Z,0.30
2022-07-26T18:46:42.372Z,0.20
2022-07-26T18:51:46.233Z,0.20
2022-07-26T18:56:53.024Z,0.30
2022-07-26T19:01:59.783Z,0.30
2022-07-26T19:07:03.902Z,0.30
2022-07-26T19:12:08.303Z,0.30
2022-07-26T19:17:13.289Z,0.30
2022-07-26T19:22:17.119Z,0.20
2022-07-26T19:27:21.132Z,0.30
2022-07-26T19:32:30.480Z,0.30
2022-07-26T19:37:37.571Z,0.27
2022-07-26T19:42:42.064Z,0.30
2022-07-26T19:47:47.323Z,0.40
2022-07-26T19:52:50.959Z,0.23
2022-07-26T19:57:54.603Z,0.40
2022-07-26T20:03:00.581Z,0.30
2022-07-26T20:08:04.602Z,0.23
2022-07-26T20:13:08.544Z,0.30
2022-07-26T20:18:14.174Z,0.30
2022-07-26T20:23:17.846Z,0.30
2022-07-26T20:28:21.776Z,0.30
2022-07-26T20:33:26.843Z,0.20
2022-07-26T20:38:30.541Z,0.30
2022-07-26T20:43:34.493Z,0.20
2022-07-26T20:48:39.660Z,0.20
2022-07-26T20:53:43.322Z,0.20
2022-07-26T20:58:46.898Z,0.30
2022-07-26T21:03:51.856Z,0.30
2022-07-26T21:08:55.458Z,0.50
2022-07-26T21:14:00.707Z,0.30
2022-07-26T21:19:06.448Z,0.30
2022-07-26T21:24:10.519Z,0.20
2022-07-26T21:29:15.284Z,0.30
2022-07-26T21:34:20.752Z,0.40
2022-07-26T21:39:24.442Z,0.30
2022-07-26T21:44:28.077Z,0.30
2022-07-26T21:49:33.430Z,0.40
2022-07-26T21:54:37.040Z,0.30
2022-07-26T21:59:40.692Z,0.40
2022-07-26T22:04:45.652Z,0.30
2022-07-26T22:09:49.247Z,0.30
2022-07-26T22:14:52.829Z,0.33
2022-07-26T22:19:57.782Z,0.30
2022-07-26T22:25:01.409Z,0.20
2022-07-26T22:30:05.792Z,0.23
2022-07-26T22:35:12.591Z,0.30
2022-07-26T22:40:16.208Z,0.40
2022-07-26T22:45:20.680Z,0.33
2022-07-26T22:50:26.002Z,0.40
2022-07-26T22:55:30.510Z,0.50
2022-07-26T23:00:34.177Z,0.37
2022-07-26T23:05:46.011Z,0.37
2022-07-26T23:10:51.907Z,0.40
2022-07-26T23:16:00.013Z,0.33
2022-07-26T23:21:06.030Z,0.33
2022-07-26T23:26:09.655Z,0.50
2022-07-26T23:31:14.277Z,0.50
2022-07-26T23:36:19.375Z,0.50
2022-07-26T23:41:23.546Z,0.50
2022-07-26T23:46:27.889Z,0.30
2022-07-26T23:51:33.466Z,0.50
2022-07-26T23:56:37.111Z,0.40
